Time;durP1;ratioP1;P1;durP2;ratioP2;P2;SDS_P1;SDS_P2;PMS_P1;PMS_P2;Temp;Humidity;BMP_temperature;BMP_pressure;BME280_temperature;BME280_humidity;BME280_pressure;Samples;Min_cycle;Max_cycle;Signal;HPM_P1;HPM_P2
2022/01/11 00:00:43;;;;;;;6.75;5.72;;;;;;;8.64;36.47;100036.06;1729959;80;21564;-66
2022/01/11 00:03:15;;;;;;;6.45;5.40;;;;;;;8.67;36.48;100038.91;1749693;81;21183;-64
2022/01/11 00:05:55;;;;;;;6.20;4.97;;;;;;;8.64;36.53;100041.85;1720074;80;20989;-65
2022/01/11 00:08:18;;;;;;;7.78;6.20;;;;;;;8.65;36.47;100044.37;1734393;82;20891;-65
2022/01/11 00:10:54;;;;;;;7.35;6.08;;;;;;;8.64;36.50;100040.52;1797466;79;21008;-65
2022/01/11 00:13:21;;;;;;;7.05;5.22;;;;;;;8.67;36.42;100040.23;1789995;79;21792;-66
2022/01/11 00:15:48;;;;;;;5.80;5.08;;;;;;;8.62;36.41;100038.03;1781471;79;21140;-66
2022/01/11 00:18:15;;;;;;;5.40;4.58;;;;;;;8.60;36.50;100041.80;1759593;80;20968;-65
2022/01/11 00:20:41;;;;;;;5.53;4.97;;;;;;;8.59;36.51;100046.27;1755199;80;21488;-65
2022/01/11 00:25:39;;;;;;;8.90;5.92;;;;;;;8.57;36.51;100049.56;1769945;80;21559;-65
2022/01/11 00:28:07;;;;;;;10.10;6.92;;;;;;;8.59;36.51;100049.41;1759364;80;21171;-64
2022/01/11 00:30:39;;;;;;;10.82;7.58;;;;;;;8.53;36.50;100050.81;1808670;78;37383;-64
2022/01/11 00:33:09;;;;;;;11.57;7.87;;;;;;;8.52;36.43;100055.79;1800225;78;21492;-66
2022/01/11 00:35:46;;;;;;;13.13;8.43;;;;;;;8.50;36.42;100055.55;1792174;79;20990;-64
2022/01/11 00:38:02;;;;;;;11.20;8.20;;;;;;;8.50;36.41;100052.91;1802588;78;20919;-63
2022/01/11 00:40:30;;;;;;;9.68;6.97;;;;;;;8.47;36.40;100056.67;1809207;78;21145;-65
2022/01/11 00:42:59;;;;;;;8.83;6.47;;;;;;;8.43;36.40;100056.63;1794476;79;21512;-65
2022/01/11 00:45:25;;;;;;;8.75;6.05;;;;;;;8.33;36.48;100057.14;1791943;78;21468;-64
2022/01/11 00:47:52;;;;;;;8.13;5.70;;;;;;;8.31;36.48;100059.11;1809330;78;21594;-63
2022/01/11 00:50:18;;;;;;;8.63;6.00;;;;;;;8.22;36.65;100059.91;1772163;79;21461;-67
2022/01/11 00:52:45;;;;;;;6.33;5.70;;;;;;;8.22;36.66;100061.23;1802155;78;22084;-65
2022/01/11 00:55:12;;;;;;;7.35;5.85;;;;;;;8.19;36.68;100063.31;1802568;79;20963;-65
2022/01/11 00:57:39;;;;;;;7.35;5.92;;;;;;;8.18;36.68;100064.31;1804270;78;20973;-63
2022/01/11 01:00:11;;;;;;;7.50;5.90;;;;;;;8.17;36.71;100063.47;1770388;80;21045;-64
2022/01/11 01:02:39;;;;;;;7.62;5.25;;;;;;;8.18;36.74;100068.29;1756625;80;21543;-65
2022/01/11 01:05:07;;;;;;;7.17;5.67;;;;;;;8.20;36.72;100070.30;1769394;80;21110;-66
2022/01/11 01:07:34;;;;;;;7.03;5.55;;;;;;;8.14;36.65;100070.38;1808421;78;20985;-65
2022/01/11 01:10:02;;;;;;;7.47;5.08;;;;;;;8.16;36.59;100082.18;1797593;78;20885;-64
2022/01/11 01:12:30;;;;;;;5.45;4.37;;;;;;;8.13;36.65;100083.30;1805275;79;21568;-66
2022/01/11 01:14:57;;;;;;;4.90;4.40;;;;;;;8.11;36.68;100077.79;1796307;78;20922;-66
2022/01/11 01:17:23;;;;;;;6.22;4.92;;;;;;;8.12;36.68;100080.77;1800139;78;21050;-64
2022/01/11 01:19:50;;;;;;;6.65;4.85;;;;;;;8.14;36.66;100080.13;1788039;79;21486;-65
2022/01/11 01:22:16;;;;;;;6.45;4.85;;;;;;;8.15;36.64;100086.63;1739138;81;21452;-64
2022/01/11 01:24:43;;;;;;;8.23;5.72;;;;;;;8.08;36.68;100092.16;1775238;79;20982;-65
2022/01/11 01:27:09;;;;;;;6.22;4.90;;;;;;;8.02;36.66;100098.84;1776863;79;21520;-65
2022/01/11 01:29:38;;;;;;;7.30;5.12;;;;;;;7.97;36.66;100109.50;1740533;81;21143;-62
2022/01/11 01:32:05;;;;;;;5.03;4.30;;;;;;;7.97;36.68;100106.38;1711660;82;20986;-66
2022/01/11 01:34:32;;;;;;;7.10;5.03;;;;;;;7.96;36.76;100105.17;1717780;82;20929;-65
2022/01/11 01:36:58;;;;;;;6.33;4.70;;;;;;;8.00;36.67;100106.07;1740903;80;21412;-65
2022/01/11 01:39:25;;;;;;;5.33;4.25;;;;;;;7.99;36.68;100107.55;1730855;80;20905;-65
2022/01/11 01:41:52;;;;;;;5.55;4.28;;;;;;;7.98;36.62;100105.86;1739125;80;21128;-65
2022/01/11 01:44:19;;;;;;;5.60;3.90;;;;;;;7.95;36.58;100106.16;1732783;80;21001;-65
2022/01/11 01:46:46;;;;;;;4.33;3.83;;;;;;;7.96;36.54;100107.82;1745909;82;21073;-65
2022/01/11 01:49:17;;;;;;;5.97;4.62;;;;;;;7.99;36.43;100106.22;1731176;80;21014;-66
2022/01/11 01:51:41;;;;;;;4.72;3.92;;;;;;;7.95;36.43;100104.84;1775746;79;20931;-65
2022/01/11 01:54:07;;;;;;;5.47;4.37;;;;;;;7.95;36.45;100105.65;1734600;81;21074;-66
2022/01/11 01:56:35;;;;;;;6.30;5.33;;;;;;;8.03;36.34;100108.93;1772864;79;20963;-64
2022/01/11 01:59:01;;;;;;;5.80;4.80;;;;;;;8.02;36.33;100119.20;1769200;79;20856;-64
2022/01/11 02:01:32;;;;;;;6.45;5.35;;;;;;;8.05;36.29;100114.47;1774880;79;20950;-63
2022/01/11 02:03:58;;;;;;;7.37;5.50;;;;;;;8.07;36.39;100120.94;1773491;79;20930;-65
2022/01/11 02:06:24;;;;;;;6.78;5.80;;;;;;;8.13;36.30;100128.34;1771517;79;21464;-64
2022/01/11 02:08:51;;;;;;;6.70;5.10;;;;;;;8.12;36.33;100129.80;1774791;79;20879;-64
2022/01/11 02:11:19;;;;;;;6.78;5.62;;;;;;;8.03;36.33;100130.12;1772793;79;21540;-64
2022/01/11 02:13:46;;;;;;;8.25;6.35;;;;;;;8.03;36.31;100128.32;1768482;79;20962;-65
2022/01/11 02:16:14;;;;;;;6.75;5.95;;;;;;;8.03;36.34;100132.30;1774164;79;21535;-65
2022/01/11 02:18:42;;;;;;;6.55;5.45;;;;;;;8.12;36.29;100133.77;1781137;79;21140;-64
2022/01/11 02:21:10;;;;;;;6.78;5.80;;;;;;;8.12;36.29;100133.77;1806407;78;20966;-64
2022/01/11 02:23:37;;;;;;;8.65;6.20;;;;;;;8.12;36.29;100134.61;1813169;78;20895;-64
2022/01/11 02:26:03;;;;;;;7.40;6.17;;;;;;;8.20;36.18;100132.11;1776184;78;20951;-67
2022/01/11 02:28:33;;;;;;;7.70;5.58;;;;;;;8.22;36.12;100135.93;1808080;78;21552;-64
2022/01/11 02:31:01;;;;;;;7.60;5.97;;;;;;;8.21;36.10;100139.58;1793642;78;21203;-64
2022/01/11 02:33:35;;;;;;;7.55;5.53;;;;;;;8.16;36.10;100138.64;1815920;78;20961;-66
2022/01/11 02:36:06;;;;;;;9.60;6.53;;;;;;;8.05;36.19;100147.59;1805171;78;20969;-65
2022/01/11 02:38:34;;;;;;;7.25;5.75;;;;;;;8.01;36.11;100151.96;1813814;78;20977;-68
2022/01/11 02:41:01;;;;;;;8.50;6.25;;;;;;;7.91;36.28;100151.95;1814896;78;21472;-65
2022/01/11 02:43:28;;;;;;;7.80;5.65;;;;;;;7.83;36.36;100150.95;1809160;78;21135;-66
2022/01/11 02:45:55;;;;;;;8.68;6.50;;;;;;;7.78;36.42;100147.41;1797268;78;20954;-65
2022/01/11 02:48:22;;;;;;;8.35;6.10;;;;;;;7.65;36.44;100148.62;1800699;78;21001;-64
2022/01/11 02:50:49;;;;;;;8.58;6.08;;;;;;;7.65;36.44;100148.62;1777032;78;20989;-66
2022/01/11 02:53:18;;;;;;;8.38;6.33;;;;;;;7.67;36.64;100146.66;1804449;78;20867;-64
2022/01/11 02:55:45;;;;;;;9.75;6.65;;;;;;;7.68;36.63;100149.67;1811895;78;21229;-65
2022/01/11 02:58:12;;;;;;;8.43;5.42;;;;;;;7.71;36.61;100147.60;1809235;78;21271;-65
2022/01/11 03:00:40;;;;;;;7.50;5.92;;;;;;;7.65;36.58;100151.27;1800194;78;21013;-64
2022/01/11 03:03:23;;;;;;;7.12;6.37;;;;;;;7.52;36.68;100152.84;1806319;78;20992;-65
2022/01/11 03:05:53;;;;;;;7.58;6.47;;;;;;;7.53;36.58;100147.91;1794696;78;20938;-64
2022/01/11 03:08:20;;;;;;;6.90;5.92;;;;;;;7.56;36.69;100150.77;1771430;78;21988;-65
2022/01/11 03:10:47;;;;;;;5.87;4.75;;;;;;;7.48;36.75;100157.55;1811907;78;21514;-64
2022/01/11 03:13:16;;;;;;;4.78;4.12;;;;;;;7.39;36.79;100162.34;1802609;78;20961;-65
2022/01/11 03:15:44;;;;;;;6.08;4.45;;;;;;;7.35;36.68;100162.23;1804519;78;21009;-65
2022/01/11 03:18:11;;;;;;;5.58;4.25;;;;;;;7.23;36.71;100155.85;1801938;78;20884;-66
2022/01/11 03:20:43;;;;;;;4.67;4.20;;;;;;;7.09;36.95;100170.27;1804274;78;21159;-66
2022/01/11 03:23:12;;;;;;;5.08;4.58;;;;;;;7.16;36.92;100163.50;1803495;79;20840;-64
2022/01/11 03:25:38;;;;;;;4.87;4.42;;;;;;;7.19;36.87;100165.89;1793925;79;20918;-67
2022/01/11 03:28:05;;;;;;;5.97;5.20;;;;;;;7.33;36.76;100179.23;1786562;79;21501;-65
2022/01/11 03:30:34;;;;;;;7.62;5.53;;;;;;;7.45;36.69;100184.80;1791541;79;20966;-66
2022/01/11 03:33:00;;;;;;;7.78;6.12;;;;;;;7.49;36.62;100180.90;1787850;79;21835;-66
2022/01/11 03:35:29;;;;;;;7.47;5.78;;;;;;;7.52;36.58;100190.38;1784397;79;20994;-64
2022/01/11 03:37:56;;;;;;;9.88;7.35;;;;;;;7.53;36.59;100193.39;1780811;79;20966;-66
2022/01/11 03:40:25;;;;;;;9.28;7.03;;;;;;;7.57;36.52;100188.17;1791319;79;21068;-64
2022/01/11 03:42:52;;;;;;;9.78;7.25;;;;;;;7.52;36.73;100193.88;1791809;79;21006;-66
2022/01/11 03:45:21;;;;;;;10.95;7.95;;;;;;;7.46;36.71;100195.24;1794823;79;21077;-65
2022/01/11 03:47:50;;;;;;;11.53;9.08;;;;;;;7.46;36.74;100214.25;1792805;79;20970;-66
2022/01/11 03:50:17;;;;;;;9.15;7.95;;;;;;;7.36;36.79;100197.49;1786280;79;20998;-64
2022/01/11 03:52:44;;;;;;;12.68;8.05;;;;;;;7.38;36.83;100203.48;1745162;80;20935;-66
2022/01/11 03:55:14;;;;;;;9.80;7.45;;;;;;;7.33;36.87;100210.98;1756698;81;21417;-65
2022/01/11 03:57:42;;;;;;;10.90;8.58;;;;;;;7.31;36.98;100213.78;1748917;81;21795;-66
2022/01/11 04:00:13;;;;;;;11.10;8.45;;;;;;;7.33;37.13;100215.80;1754662;81;20833;-66
2022/01/11 04:02:41;;;;;;;10.68;8.10;;;;;;;7.43;36.96;100218.48;1748712;81;20944;-63
2022/01/11 04:05:11;;;;;;;10.30;7.83;;;;;;;7.52;36.82;100216.86;1737756;82;20904;-65
2022/01/11 04:07:38;;;;;;;11.83;8.78;;;;;;;7.56;36.87;100223.58;1724458;82;20960;-65
2022/01/11 04:10:08;;;;;;;10.32;7.83;;;;;;;7.46;36.72;100224.36;1734640;82;21150;-66
2022/01/11 04:12:35;;;;;;;7.60;6.35;;;;;;;7.46;36.72;100224.36;1729295;82;21474;-65
2022/01/11 04:15:03;;;;;;;8.78;6.35;;;;;;;7.46;36.88;100229.66;1757925;81;20973;-66
2022/01/11 04:17:29;;;;;;;8.83;7.10;;;;;;;7.44;36.77;100238.23;1758667;81;21485;-65
2022/01/11 04:19:56;;;;;;;7.85;6.53;;;;;;;7.44;36.77;100238.23;1747980;81;20931;-66
2022/01/11 04:22:23;;;;;;;7.15;5.75;;;;;;;7.38;36.91;100236.09;1764151;81;21153;-65
2022/01/11 04:24:50;;;;;;;7.87;6.05;;;;;;;7.36;36.94;100240.69;1755691;81;21438;-65
2022/01/11 04:27:16;;;;;;;7.37;5.47;;;;;;;7.25;37.23;100245.21;1753309;80;20919;-64
2022/01/11 04:29:43;;;;;;;7.22;5.47;;;;;;;7.25;37.23;100245.21;1745690;81;21489;-66
2022/01/11 04:32:09;;;;;;;5.92;5.10;;;;;;;7.27;36.81;100250.73;1728167;82;20927;-63
2022/01/11 04:34:37;;;;;;;6.03;4.87;;;;;;;7.01;37.39;100253.45;1735646;82;20876;-65
2022/01/11 04:37:04;;;;;;;7.53;4.90;;;;;;;7.01;37.39;100253.45;1745764;81;21464;-63
2022/01/11 04:39:33;;;;;;;6.62;5.10;;;;;;;6.94;37.49;100257.55;1755481;80;20951;-64
2022/01/11 04:42:01;;;;;;;6.50;4.92;;;;;;;6.91;37.55;100253.02;1752455;80;20947;-65
2022/01/11 04:44:28;;;;;;;7.12;5.42;;;;;;;6.84;37.63;100259.29;1757096;81;20911;-66
2022/01/11 04:46:55;;;;;;;6.75;4.80;;;;;;;6.80;37.70;100256.56;1757772;81;21861;-66
2022/01/11 04:49:21;;;;;;;6.67;4.67;;;;;;;6.72;37.76;100257.67;1755974;81;21560;-65
2022/01/11 04:51:48;;;;;;;6.45;4.03;;;;;;;6.62;37.85;100257.58;1737835;81;21046;-64
2022/01/11 04:54:14;;;;;;;6.37;4.85;;;;;;;6.59;38.01;100266.27;1726522;80;22236;-63
2022/01/11 04:56:42;;;;;;;4.78;4.08;;;;;;;6.55;38.09;100275.39;1727871;82;21521;-63
2022/01/11 04:59:13;;;;;;;6.15;4.50;;;;;;;6.58;38.20;100275.99;1733591;81;21122;-66
2022/01/11 05:01:41;;;;;;;5.22;4.72;;;;;;;6.58;38.20;100275.99;1747232;81;20919;-66
2022/01/11 05:04:08;;;;;;;5.45;4.78;;;;;;;6.58;38.06;100284.41;1756136;81;20999;-65
2022/01/11 05:06:34;;;;;;;5.83;5.05;;;;;;;6.56;38.13;100283.22;1735043;80;21595;-64
2022/01/11 05:09:01;;;;;;;5.55;4.65;;;;;;;6.58;38.16;100291.01;1788562;79;20872;-65
2022/01/11 05:11:27;;;;;;;6.20;4.65;;;;;;;6.60;38.34;100285.11;1770340;79;21162;-66
2022/01/11 05:13:54;;;;;;;6.03;4.30;;;;;;;6.59;38.31;100297.52;1796392;79;21497;-66
2022/01/11 05:16:22;;;;;;;6.72;4.55;;;;;;;6.60;38.24;100297.00;1774724;79;21426;-67
2022/01/11 05:18:49;;;;;;;5.55;4.47;;;;;;;6.64;38.67;100297.13;1783652;79;20990;-67
2022/01/11 05:21:16;;;;;;;5.95;4.72;;;;;;;6.63;38.41;100298.08;1793004;79;20974;-66
2022/01/11 05:23:42;;;;;;;6.47;4.60;;;;;;;6.51;38.43;100297.77;1795507;79;21138;-65
2022/01/11 05:26:08;;;;;;;5.42;4.33;;;;;;;6.43;38.42;100302.84;1789816;79;21650;-65
2022/01/11 05:28:35;;;;;;;6.60;5.17;;;;;;;6.34;38.57;100304.41;1798288;79;21036;-68
2022/01/11 05:31:03;;;;;;;6.50;4.60;;;;;;;6.33;38.61;100305.39;1782613;79;20967;-64
2022/01/11 05:33:31;;;;;;;8.65;4.62;;;;;;;6.28;38.81;100313.33;1786263;79;21036;-64
2022/01/11 05:35:57;;;;;;;6.67;4.92;;;;;;;6.33;38.73;100309.83;1778513;79;21134;-67
2022/01/11 05:38:24;;;;;;;5.50;4.83;;;;;;;6.43;38.56;100309.45;1796051;79;20966;-69
2022/01/11 05:40:50;;;;;;;8.70;5.90;;;;;;;6.45;38.53;100310.16;1794062;79;21028;-72
2022/01/11 05:43:17;;;;;;;5.78;4.60;;;;;;;6.52;38.46;100313.49;1790936;79;21650;-70
2022/01/11 05:45:44;;;;;;;5.78;4.50;;;;;;;6.51;38.39;100315.80;1757721;81;21589;-67
2022/01/11 05:48:10;;;;;;;7.08;5.58;;;;;;;6.47;38.44;100325.40;1738284;82;21137;-68
2022/01/11 05:50:39;;;;;;;6.95;5.58;;;;;;;6.55;38.41;100326.47;1757559;81;20968;-66
2022/01/11 05:53:06;;;;;;;6.80;5.50;;;;;;;6.67;38.24;100331.25;1725198;82;20908;-66
2022/01/11 05:55:33;;;;;;;9.08;6.22;;;;;;;6.72;38.31;100327.75;1760329;81;21575;-64
2022/01/11 05:58:00;;;;;;;9.13;6.72;;;;;;;6.80;38.29;100325.32;1747420;80;20985;-65
2022/01/11 06:00:26;;;;;;;10.03;6.53;;;;;;;6.87;38.10;100328.29;1747700;80;21163;-68
2022/01/11 06:02:54;;;;;;;7.62;5.53;;;;;;;6.88;38.11;100333.47;1755025;81;20987;-65
2022/01/11 06:05:26;;;;;;;9.40;5.75;;;;;;;6.90;38.01;100335.98;1753515;81;21488;-65
2022/01/11 06:07:53;;;;;;;6.37;5.12;;;;;;;6.78;38.16;100336.48;1735326;82;21042;-65
2022/01/11 06:10:20;;;;;;;8.00;5.22;;;;;;;6.76;38.07;100342.39;1745206;81;21074;-63
2022/01/11 06:12:48;;;;;;;6.92;4.75;;;;;;;6.55;38.10;100343.66;1729073;82;21387;-65
2022/01/11 06:15:14;;;;;;;6.45;4.67;;;;;;;6.55;38.10;100343.66;1760203;81;21484;-63
2022/01/11 06:17:41;;;;;;;5.65;4.10;;;;;;;6.57;37.99;100350.16;1731206;82;21057;-64
2022/01/11 06:20:10;;;;;;;8.40;5.37;;;;;;;6.58;37.95;100355.78;1732582;82;20900;-65
2022/01/11 06:22:37;;;;;;;9.18;5.75;;;;;;;6.47;38.06;100345.22;1770855;80;20996;-66
2022/01/11 06:25:07;;;;;;;6.78;5.22;;;;;;;6.51;37.98;100355.93;1767626;80;21165;-64
2022/01/11 06:27:34;;;;;;;6.47;4.67;;;;;;;6.45;38.18;100355.94;1760200;80;20990;-64
2022/01/11 06:30:01;;;;;;;5.58;4.60;;;;;;;6.49;38.13;100357.35;1791084;78;20929;-64
2022/01/11 06:32:30;;;;;;;6.78;5.47;;;;;;;6.41;38.00;100358.48;1811628;79;20847;-65
2022/01/11 06:34:59;;;;;;;7.37;5.05;;;;;;;6.39;37.92;100364.85;1805564;78;20973;-63
2022/01/11 06:37:25;;;;;;;5.97;4.83;;;;;;;6.48;37.84;100372.03;1801524;79;21138;-64
2022/01/11 06:39:52;;;;;;;6.10;4.33;;;;;;;6.49;37.81;100378.50;1806289;78;21484;-65
2022/01/11 06:42:18;;;;;;;8.18;5.37;;;;;;;6.42;37.94;100383.08;1776572;79;21509;-65
2022/01/11 06:44:47;;;;;;;7.40;5.25;;;;;;;6.42;37.98;100382.61;1804210;79;20978;-66
2022/01/11 06:47:14;;;;;;;6.62;5.00;;;;;;;6.43;38.01;100390.06;1795440;79;20987;-64
2022/01/11 06:49:41;;;;;;;7.25;5.65;;;;;;;6.52;37.96;100390.16;1803175;78;21185;-64
2022/01/11 06:52:08;;;;;;;6.15;4.90;;;;;;;6.55;37.94;100393.03;1807299;78;20906;-67
2022/01/11 06:54:36;;;;;;;6.72;5.35;;;;;;;6.56;37.95;100394.73;1803822;78;21038;-63
2022/01/11 06:57:04;;;;;;;6.80;5.37;;;;;;;6.57;37.87;100399.06;1809195;79;20982;-64
2022/01/11 06:59:30;;;;;;;8.08;5.92;;;;;;;6.58;37.86;100408.66;1808936;78;20892;-65
2022/01/11 07:01:59;;;;;;;6.92;4.83;;;;;;;6.59;37.80;100407.23;1793760;79;21164;-63
2022/01/11 07:04:37;;;;;;;7.10;5.50;;;;;;;6.53;37.87;100409.51;1807471;79;21544;-64
2022/01/11 07:07:05;;;;;;;7.62;5.80;;;;;;;6.52;37.90;100417.06;1792112;79;21511;-64
2022/01/11 07:09:32;;;;;;;8.30;6.55;;;;;;;6.53;37.98;100414.80;1804680;78;20974;-65
2022/01/11 07:11:58;;;;;;;10.28;7.80;;;;;;;6.62;37.98;100413.57;1803553;79;20879;-64
2022/01/11 07:14:25;;;;;;;11.35;7.53;;;;;;;6.70;37.83;100414.31;1797351;78;21822;-65
2022/01/11 07:16:51;;;;;;;10.45;7.92;;;;;;;6.72;37.81;100420.31;1802818;78;20895;-64
2022/01/11 07:19:18;;;;;;;10.98;7.42;;;;;;;6.78;37.86;100418.47;1807931;79;20860;-65
2022/01/11 07:21:46;;;;;;;12.15;7.92;;;;;;;6.94;37.65;100424.69;1803131;78;21516;-65
2022/01/11 07:24:15;;;;;;;8.75;6.75;;;;;;;6.96;37.62;100422.27;1785829;79;21477;-64
2022/01/11 07:26:42;;;;;;;9.68;7.17;;;;;;;6.94;37.65;100420.23;1783498;78;21862;-64
2022/01/11 07:29:08;;;;;;;10.05;7.08;;;;;;;7.02;37.67;100423.11;1786460;78;21052;-64
2022/01/11 07:31:37;;;;;;;8.95;6.78;;;;;;;7.11;37.48;100425.02;1789119;78;20912;-64
2022/01/11 07:34:05;;;;;;;8.38;6.10;;;;;;;7.25;37.35;100430.47;1775826;78;20891;-64
2022/01/11 07:36:32;;;;;;;6.85;5.65;;;;;;;7.33;37.09;100428.03;1787025;79;21165;-63
2022/01/11 07:39:01;;;;;;;7.65;6.08;;;;;;;7.33;37.09;100428.03;1789735;78;21153;-63
2022/01/11 07:41:29;;;;;;;7.60;5.60;;;;;;;7.34;37.02;100430.58;1790566;79;21515;-69
2022/01/11 07:43:59;;;;;;;8.38;6.30;;;;;;;7.34;37.01;100433.23;1786354;78;20923;-65
2022/01/11 07:46:27;;;;;;;8.78;6.08;;;;;;;7.31;36.97;100436.13;1777589;79;21278;-68
2022/01/11 07:48:54;;;;;;;9.95;6.72;;;;;;;7.31;36.97;100436.13;1789004;79;20978;-66
2022/01/11 07:51:21;;;;;;;6.55;5.22;;;;;;;7.45;36.90;100433.19;1780831;79;21151;-64
2022/01/11 07:53:49;;;;;;;8.40;6.72;;;;;;;7.61;36.81;100431.90;1785327;78;21466;-66
2022/01/11 07:56:18;;;;;;;8.05;6.20;;;;;;;7.71;36.79;100432.32;1785602;78;20927;-65
2022/01/11 07:58:45;;;;;;;8.10;6.55;;;;;;;7.90;36.31;100430.28;1753573;79;20967;-66
2022/01/11 08:01:12;;;;;;;7.85;6.47;;;;;;;7.93;36.17;100436.14;1789357;79;21468;-65
2022/01/11 08:03:41;;;;;;;8.45;6.05;;;;;;;7.93;36.17;100436.14;1776823;78;21494;-64
2022/01/11 08:06:09;;;;;;;7.80;6.20;;;;;;;8.01;36.03;100439.47;1782274;78;21425;-64
2022/01/11 08:08:36;;;;;;;7.53;5.87;;;;;;;8.01;36.03;100439.47;1788575;78;20966;-66
2022/01/11 08:11:03;;;;;;;6.47;5.50;;;;;;;8.22;35.57;100433.66;1785558;78;20998;-66
2022/01/11 08:13:29;;;;;;;7.97;6.92;;;;;;;8.25;35.57;100433.87;1791582;79;21768;-70
2022/01/11 08:15:56;;;;;;;9.43;7.35;;;;;;;8.25;35.57;100433.87;1788559;78;21135;-66
2022/01/11 08:18:23;;;;;;;6.95;6.20;;;;;;;8.35;35.32;100440.93;1792694;78;21057;-65
2022/01/11 08:20:49;;;;;;;7.70;6.30;;;;;;;8.42;35.25;100438.60;1795278;79;20884;-65
2022/01/11 08:23:16;;;;;;;8.53;6.03;;;;;;;8.49;34.99;100435.28;1797792;79;20963;-66
2022/01/11 08:25:42;;;;;;;7.20;5.20;;;;;;;8.48;34.87;100442.03;1779185;79;21583;-66
2022/01/11 08:28:09;;;;;;;6.17;5.15;;;;;;;8.51;34.80;100436.45;1795958;79;21081;-65
2022/01/11 08:30:36;;;;;;;7.67;6.08;;;;;;;8.48;34.73;100438.89;1792292;79;20951;-65
2022/01/11 08:33:05;;;;;;;6.55;5.30;;;;;;;8.49;34.71;100435.28;1797650;79;20947;-66
2022/01/11 08:35:33;;;;;;;7.22;5.65;;;;;;;8.49;36.50;100441.06;1777670;79;21126;-66
2022/01/11 08:37:59;;;;;;;6.37;5.40;;;;;;;8.55;37.31;100445.33;1794540;79;21227;-65
2022/01/11 08:40:27;;;;;;;6.95;5.25;;;;;;;8.55;37.01;100442.68;1794655;79;21736;-66
2022/01/11 08:42:55;;;;;;;8.13;5.97;;;;;;;8.57;37.10;100448.72;1793815;79;21030;-65
2022/01/11 08:45:22;;;;;;;7.65;6.37;;;;;;;8.63;37.25;100451.28;1778606;79;21075;-65
2022/01/11 08:47:50;;;;;;;7.47;5.87;;;;;;;8.65;37.14;100455.52;1793136;79;21789;-65
2022/01/11 08:50:17;;;;;;;10.68;8.43;;;;;;;8.73;37.14;100452.67;1787658;79;21026;-66
2022/01/11 08:52:45;;;;;;;12.65;9.75;;;;;;;8.83;37.02;100455.70;1784076;79;21144;-65
2022/01/11 08:55:13;;;;;;;14.05;11.30;;;;;;;8.96;36.78;100450.98;1796907;79;20958;-64
2022/01/11 08:57:40;;;;;;;13.45;10.40;;;;;;;9.02;36.48;100446.44;1799260;79;20880;-66
2022/01/11 09:00:13;;;;;;;11.20;9.48;;;;;;;9.11;35.92;100448.77;1788467;79;20971;-65
2022/01/11 09:02:39;;;;;;;13.98;11.12;;;;;;;9.08;35.25;100449.88;1780802;79;20876;-64
2022/01/11 09:05:07;;;;;;;13.95;10.93;;;;;;;9.00;34.99;100449.72;1791498;79;21426;-65
2022/01/11 09:07:36;;;;;;;18.80;12.45;;;;;;;9.05;34.72;100449.30;1793100;79;21458;-65
2022/01/11 09:10:05;;;;;;;14.07;9.93;;;;;;;9.02;34.64;100449.09;1761843;79;21540;-65
2022/01/11 09:12:33;;;;;;;8.33;7.12;;;;;;;9.14;34.50;100450.66;1798291;79;20936;-64
2022/01/11 09:15:01;;;;;;;8.53;7.08;;;;;;;9.20;34.40;100439.98;1787601;79;20993;-65
2022/01/11 09:17:28;;;;;;;11.08;6.10;;;;;;;9.26;34.31;100446.05;1756028;81;21099;-65
2022/01/11 09:19:54;;;;;;;7.80;6.65;;;;;;;9.33;34.24;100449.01;1748812;81;20994;-65
2022/01/11 09:22:21;;;;;;;10.15;8.20;;;;;;;9.44;34.10;100436.41;1762098;80;20958;-65
2022/01/11 09:24:48;;;;;;;9.18;7.40;;;;;;;9.62;33.92;100440.04;1802648;79;20935;-65
2022/01/11 09:27:16;;;;;;;12.60;9.03;;;;;;;9.76;33.52;100438.29;1806494;78;21025;-65
2022/01/11 09:29:45;;;;;;;13.00;10.70;;;;;;;9.90;33.29;100441.00;1796784;78;21574;-65
2022/01/11 09:32:12;;;;;;;13.15;11.20;;;;;;;10.02;33.22;100439.84;1795736;78;20835;-66
2022/01/11 09:34:40;;;;;;;13.93;11.00;;;;;;;10.14;33.06;100440.56;1764443;80;20860;-65
2022/01/11 09:37:09;;;;;;;14.03;12.05;;;;;;;10.29;32.93;100432.46;1773891;80;20867;-66
2022/01/11 09:39:36;;;;;;;11.48;10.28;;;;;;;10.41;32.77;100435.27;1741101;82;20954;-64
2022/01/11 09:42:05;;;;;;;11.18;9.35;;;;;;;10.47;32.67;100435.55;1768297;80;21150;-65
2022/01/11 09:44:34;;;;;;;10.08;8.45;;;;;;;10.51;32.60;100437.39;1758489;80;21474;-65
2022/01/11 09:47:00;;;;;;;8.40;7.35;;;;;;;10.45;32.65;100434.83;1748195;82;20998;-64
2022/01/11 09:49:27;;;;;;;10.90;8.15;;;;;;;10.45;32.63;100435.34;1747205;82;20982;-65
2022/01/11 09:51:54;;;;;;;10.30;7.67;;;;;;;10.46;32.58;100438.33;1744997;82;20962;-65
2022/01/11 09:54:21;;;;;;;9.40;7.78;;;;;;;10.57;32.45;100436.81;1768581;80;21138;-65
2022/01/11 09:56:48;;;;;;;9.53;7.92;;;;;;;10.61;32.35;100432.86;1768369;80;21481;-66
2022/01/11 09:59:16;;;;;;;9.48;8.38;;;;;;;10.61;32.27;100438.19;1772870;80;20958;-65
2022/01/11 10:02:00;;;;;;;10.38;8.70;;;;;;;10.56;32.23;100439.12;1769882;80;20951;-65
2022/01/11 10:04:46;;;;;;;10.45;9.15;;;;;;;10.58;32.18;100442.98;1766287;80;21252;-66
2022/01/11 10:07:30;;;;;;;10.68;9.53;;;;;;;10.51;32.06;100438.72;1732615;80;21167;-65
2022/01/11 10:09:57;;;;;;;12.88;11.35;;;;;;;10.47;32.03;100442.68;1771043;80;20927;-64
2022/01/11 10:12:24;;;;;;;11.48;10.28;;;;;;;10.48;31.90;100445.70;1763057;80;21559;-65
2022/01/11 10:14:53;;;;;;;11.60;7.70;;;;;;;10.44;31.89;100449.12;1801903;79;21153;-65
2022/01/11 10:17:27;;;;;;;9.03;7.97;;;;;;;10.38;31.87;100439.55;1774283;80;20872;-65
2022/01/11 10:20:12;;;;;;;9.80;8.18;;;;;;;10.28;31.93;100444.07;1762379;80;25185;-64
2022/01/11 10:22:56;;;;;;;14.33;8.23;;;;;;;10.23;32.17;100442.34;1730188;81;20915;-65
2022/01/11 10:25:23;;;;;;;8.45;7.40;;;;;;;10.44;32.06;100440.30;1722167;81;21528;-65
2022/01/11 10:28:03;;;;;;;8.50;7.53;;;;;;;10.45;32.13;100435.34;1727066;82;21504;-66
2022/01/11 10:30:32;;;;;;;8.70;7.58;;;;;;;10.43;32.20;100446.59;1757020;81;20989;-65
2022/01/11 10:33:04;;;;;;;8.95;8.03;;;;;;;10.43;32.30;100446.59;1761885;81;21154;-66
2022/01/11 10:35:45;;;;;;;8.88;7.65;;;;;;;10.48;32.31;100445.18;1725709;82;20897;-65
2022/01/11 10:38:16;;;;;;;9.73;7.58;;;;;;;10.56;32.29;100439.12;1759719;81;21265;-64
2022/01/11 10:40:45;;;;;;;9.75;7.28;;;;;;;10.57;32.30;100439.97;1760388;81;20952;-65
2022/01/11 10:43:14;;;;;;;9.78;8.18;;;;;;;10.51;32.26;100438.72;1749268;80;21062;-67
2022/01/11 10:45:51;;;;;;;9.60;7.58;;;;;;;10.53;32.26;100440.25;1757407;81;21140;-65
2022/01/11 10:48:23;;;;;;;7.75;6.92;;;;;;;10.52;32.27;100441.74;1730043;82;20963;-66
2022/01/11 10:50:56;;;;;;;7.20;6.47;;;;;;;10.60;32.17;100433.87;1752217;81;20979;-65
2022/01/11 10:53:25;;;;;;;7.92;7.12;;;;;;;10.62;32.20;100434.55;1753067;81;20947;-64
2022/01/11 10:55:57;;;;;;;7.60;6.80;;;;;;;10.72;32.12;100433.16;1726225;82;21702;-65
2022/01/11 10:58:24;;;;;;;8.30;7.42;;;;;;;10.66;32.00;100420.47;1758629;81;21087;-64
2022/01/11 11:00:53;;;;;;;7.53;6.78;;;;;;;10.58;31.89;100425.20;1743918;81;20979;-64
2022/01/11 11:03:26;;;;;;;8.25;7.03;;;;;;;10.58;31.88;100429.68;1758265;81;20919;-65
2022/01/11 11:05:59;;;;;;;7.20;6.00;;;;;;;10.53;31.94;100424.30;1722528;80;21132;-65
2022/01/11 11:08:31;;;;;;;7.70;6.67;;;;;;;10.50;31.95;100427.76;1745915;81;20860;-65
2022/01/11 11:11:05;;;;;;;9.10;7.55;;;;;;;10.44;32.04;100425.19;1732747;82;21173;-65
2022/01/11 11:13:34;;;;;;;8.63;7.37;;;;;;;10.46;32.06;100421.04;1713477;80;21042;-66
2022/01/11 11:16:23;;;;;;;10.08;8.05;;;;;;;10.47;32.12;100420.06;1755894;81;21363;-64
2022/01/11 11:18:54;;;;;;;8.85;7.70;;;;;;;10.48;32.23;100419.09;1731774;81;20908;-66
2022/01/11 11:21:37;;;;;;;10.10;8.58;;;;;;;10.61;32.05;100418.23;1725531;81;22028;-65
2022/01/11 11:24:07;;;;;;;10.28;8.43;;;;;;;10.66;32.05;100406.67;1752963;81;21904;-66
2022/01/11 11:26:46;;;;;;;9.55;8.43;;;;;;;10.71;31.99;100411.55;1750007;81;21060;-66
2022/01/11 11:29:13;;;;;;;11.70;9.90;;;;;;;10.73;31.97;100410.41;1748971;80;20964;-66
2022/01/11 11:31:39;;;;;;;13.10;8.95;;;;;;;10.86;31.99;100416.22;1754903;81;20872;-65
2022/01/11 11:34:08;;;;;;;10.90;9.35;;;;;;;10.96;31.94;100422.31;1745005;81;21501;-65
2022/01/11 11:36:36;;;;;;;10.65;9.48;;;;;;;10.99;31.91;100422.02;1764115;81;22024;-66